createdAt,value
2018-07-17T00:01:15.674Z,60.33
2018-07-17T00:03:43.779Z,60.10
2018-07-17T00:06:11.874Z,60.85
2018-07-17T00:08:39.929Z,60.36
2018-07-17T00:11:08.170Z,59.93
2018-07-17T00:13:36.446Z,60.84
2018-07-17T00:16:04.711Z,61.07
2018-07-17T00:18:32.948Z,60.63
2018-07-17T00:21:01.516Z,60.37
2018-07-17T00:23:30.013Z,59.86
2018-07-17T00:25:58.408Z,60.51
2018-07-17T00:28:27.030Z,59.99
2018-07-17T00:30:55.699Z,59.99
2018-07-17T00:33:24.447Z,60.02
2018-07-17T00:35:53.078Z,59.94
2018-07-17T00:38:21.192Z,59.98
2018-07-17T00:40:49.314Z,60.18
2018-07-17T00:43:17.951Z,60.27
2018-07-17T00:45:45.999Z,60.21
2018-07-17T00:48:15.120Z,60.45
2018-07-17T00:50:43.191Z,60.37
2018-07-17T00:53:11.236Z,59.94
2018-07-17T00:55:39.362Z,59.89
2018-07-17T00:58:07.578Z,60.14
2018-07-17T01:00:40.954Z,60.33
2018-07-17T01:03:14.424Z,60.09
2018-07-17T01:05:47.760Z,59.86
2018-07-17T01:08:21.302Z,59.59
2018-07-17T01:10:54.744Z,59.93
2018-07-17T01:13:35.468Z,60.36
2018-07-17T01:16:03.532Z,60.51
2018-07-17T01:18:31.585Z,60.46
2018-07-17T01:20:59.616Z,61.26
2018-07-17T01:23:27.662Z,61.34
2018-07-17T01:25:55.696Z,61.25
2018-07-17T01:28:23.756Z,61.77
2018-07-17T01:30:51.811Z,62.16
2018-07-17T01:33:19.956Z,62.00
2018-07-17T01:35:48.022Z,62.79
2018-07-17T01:38:16.048Z,62.47
2018-07-17T01:40:44.144Z,62.65
2018-07-17T01:43:12.188Z,62.62
2018-07-17T01:45:40.610Z,62.63
2018-07-17T01:48:08.708Z,62.78
2018-07-17T01:50:36.876Z,62.58
2018-07-17T01:53:05.347Z,64.32
2018-07-17T01:55:33.403Z,63.83
2018-07-17T01:58:01.445Z,64.47
2018-07-17T02:00:29.703Z,63.92
2018-07-17T02:02:57.747Z,64.62
2018-07-17T02:05:26.205Z,64.94
2018-07-17T02:07:54.265Z,65.48
2018-07-17T02:10:24.549Z,65.52
2018-07-17T02:12:52.758Z,65.58
2018-07-17T02:15:21.029Z,65.43
2018-07-17T02:17:49.069Z,65.04
2018-07-17T02:20:18.149Z,65.40
2018-07-17T02:22:46.208Z,65.15
2018-07-17T02:25:14.265Z,65.70
2018-07-17T02:27:42.340Z,66.12
2018-07-17T02:30:11.432Z,66.05
2018-07-17T02:32:39.545Z,66.33
2018-07-17T02:35:07.651Z,65.74
2018-07-17T02:37:37.115Z,66.08
2018-07-17T02:40:05.773Z,66.25
2018-07-17T02:42:33.944Z,67.18
2018-07-17T02:45:02.140Z,67.75
2018-07-17T02:47:30.343Z,66.61
2018-07-17T02:49:58.589Z,66.83
2018-07-17T02:52:27.220Z,66.64
2018-07-17T02:54:55.647Z,67.38
2018-07-17T02:57:25.588Z,68.06
2018-07-17T02:59:54.865Z,67.97
2018-07-17T03:02:23.200Z,69.30
2018-07-17T03:04:51.383Z,68.63
2018-07-17T03:07:19.508Z,69.48
2018-07-17T03:09:47.596Z,68.90
2018-07-17T03:12:15.616Z,68.40
2018-07-17T03:14:43.802Z,68.85
2018-07-17T03:17:11.966Z,68.17
2018-07-17T03:19:40.093Z,69.58
2018-07-17T03:22:09.530Z,68.40
2018-07-17T03:24:37.603Z,68.85
2018-07-17T03:27:05.753Z,68.24
2018-07-17T03:29:33.960Z,68.86
2018-07-17T03:32:02.487Z,69.45
2018-07-17T03:34:31.483Z,70.23
2018-07-17T03:36:59.702Z,70.28
2018-07-17T03:39:27.934Z,69.41
2018-07-17T03:41:56.628Z,69.60
2018-07-17T03:44:26.495Z,69.37
2018-07-17T03:46:54.950Z,69.36
2018-07-17T03:49:24.208Z,69.67
2018-07-17T03:51:54.483Z,69.56
2018-07-17T03:54:22.910Z,69.55
2018-07-17T03:56:51.165Z,70.20
2018-07-17T03:59:19.470Z,69.58
2018-07-17T04:01:47.557Z,69.10
2018-07-17T04:04:15.594Z,69.36
2018-07-17T04:06:43.711Z,69.20
2018-07-17T04:09:11.785Z,69.18
2018-07-17T04:11:39.816Z,69.18
2018-07-17T04:14:09.915Z,69.68
2018-07-17T04:16:42.570Z,69.08
2018-07-17T04:19:10.620Z,69.20
2018-07-17T04:21:38.684Z,68.87
2018-07-17T04:24:08.512Z,68.95
2018-07-17T04:26:36.579Z,68.38
2018-07-17T04:29:04.907Z,68.31
2018-07-17T04:31:33.129Z,68.36
2018-07-17T04:34:01.165Z,68.40
2018-07-17T04:36:31.516Z,66.70
2018-07-17T04:38:59.568Z,64.67
2018-07-17T04:41:27.615Z,62.48
2018-07-17T04:43:56.486Z,60.09
2018-07-17T04:46:24.707Z,57.74
2018-07-17T04:48:53.292Z,55.29
2018-07-17T04:51:21.547Z,51.98
2018-07-17T04:53:49.703Z,50.58
2018-07-17T04:56:17.892Z,50.11
2018-07-17T04:58:46.056Z,48.00
2018-07-17T05:01:14.156Z,46.57
2018-07-17T05:03:42.191Z,44.55
2018-07-17T05:06:10.237Z,43.70
2018-07-17T05:08:38.339Z,42.97
2018-07-17T05:11:06.902Z,42.50
2018-07-17T05:13:34.947Z,42.65
2018-07-17T05:16:02.984Z,42.26
2018-07-17T05:18:31.190Z,41.57
2018-07-17T05:21:00.460Z,41.53
2018-07-17T05:23:28.505Z,41.72
2018-07-17T05:25:56.612Z,41.39
2018-07-17T05:28:26.512Z,41.00
2018-07-17T05:30:54.661Z,40.75
2018-07-17T05:33:23.583Z,39.84
2018-07-17T05:35:51.723Z,38.42
2018-07-17T05:38:19.773Z,37.82
2018-07-17T05:40:48.077Z,37.00
2018-07-17T05:43:16.126Z,36.47
2018-07-17T05:45:46.475Z,35.38
2018-07-17T05:48:14.551Z,35.03
2018-07-17T05:50:42.622Z,31.99
2018-07-17T05:53:10.649Z,32.53
2018-07-17T05:55:38.676Z,32.27
2018-07-17T05:58:06.944Z,32.24
2018-07-17T06:00:35.020Z,32.52
2018-07-17T06:03:03.077Z,32.57
2018-07-17T06:05:31.140Z,31.52
2018-07-17T06:07:59.221Z,31.18
2018-07-17T06:10:27.362Z,32.16
2018-07-17T06:12:55.327Z,31.08
2018-07-17T06:15:23.409Z,31.44
2018-07-17T06:17:51.501Z,30.76
2018-07-17T06:20:19.549Z,29.38
2018-07-17T06:22:47.619Z,29.19
2018-07-17T06:25:15.656Z,29.90
2018-07-17T06:27:43.708Z,29.61
2018-07-17T06:30:12.590Z,29.75
2018-07-17T06:32:40.732Z,29.58
2018-07-17T06:35:08.795Z,29.92
2018-07-17T06:37:37.069Z,29.78
2018-07-17T06:40:05.140Z,29.82
2018-07-17T06:42:33.226Z,29.41
2018-07-17T06:45:06.908Z,30.10
2018-07-17T06:47:35.003Z,29.12
2018-07-17T06:50:03.361Z,29.43
2018-07-17T06:52:31.455Z,30.50
2018-07-17T06:55:00.055Z,29.41
2018-07-17T06:57:28.141Z,29.58
2018-07-17T06:59:56.216Z,28.93
2018-07-17T07:02:24.296Z,28.70
2018-07-17T07:04:52.368Z,28.23
2018-07-17T07:07:22.285Z,28.49
2018-07-17T07:09:50.319Z,28.09
2018-07-17T07:12:18.379Z,28.18
2018-07-17T07:14:46.445Z,27.46
2018-07-17T07:17:14.515Z,26.49
2018-07-17T07:19:42.624Z,27.86
2018-07-17T07:22:10.682Z,26.89
2018-07-17T07:24:38.759Z,26.86
2018-07-17T07:27:07.889Z,26.54
2018-07-17T07:29:36.108Z,26.04
2018-07-17T07:32:04.444Z,26.50
2018-07-17T07:34:32.660Z,25.60
2018-07-17T07:37:00.689Z,25.96
2018-07-17T07:39:28.711Z,25.89
2018-07-17T07:41:56.771Z,25.73
2018-07-17T07:44:24.883Z,24.88
2018-07-17T07:46:52.969Z,25.09
2018-07-17T07:49:21.098Z,24.90
2018-07-17T07:51:49.303Z,22.55
2018-07-17T07:54:17.338Z,23.26
2018-07-17T07:56:45.503Z,23.72
2018-07-17T07:59:13.543Z,23.47
2018-07-17T08:01:42.066Z,23.10
2018-07-17T08:04:10.353Z,22.56
2018-07-17T08:06:38.411Z,21.95
2018-07-17T08:09:08.167Z,23.15
2018-07-17T08:11:36.318Z,22.60
2018-07-17T08:14:04.480Z,21.29
2018-07-17T08:16:32.732Z,22.03
2018-07-17T08:19:00.980Z,23.03
2018-07-17T08:21:29.167Z,23.07
2018-07-17T08:23:57.337Z,22.39
2018-07-17T08:26:25.907Z,22.15
2018-07-17T08:28:54.169Z,21.67
2018-07-17T08:31:22.249Z,20.56
2018-07-17T08:33:50.347Z,20.93
2018-07-17T08:36:18.431Z,22.14
2018-07-17T08:38:46.535Z,21.17
2018-07-17T08:41:14.609Z,22.36
2018-07-17T08:43:42.712Z,22.59
2018-07-17T08:46:10.788Z,22.09
2018-07-17T08:48:38.864Z,21.51
2018-07-17T08:51:07.006Z,22.50
2018-07-17T08:53:35.061Z,22.56
2018-07-17T08:56:03.300Z,23.50
2018-07-17T08:58:31.377Z,21.80
2018-07-17T09:00:59.435Z,22.34
2018-07-17T09:03:27.493Z,22.83
2018-07-17T09:05:55.567Z,22.29
2018-07-17T09:08:23.656Z,22.19
2018-07-17T09:10:51.699Z,22.33
2018-07-17T09:13:19.723Z,21.67
2018-07-17T09:15:47.779Z,22.30
2018-07-17T09:18:15.855Z,21.56
2018-07-17T09:20:43.899Z,21.86
2018-07-17T09:23:11.967Z,22.47
2018-07-17T09:25:40.010Z,23.16
2018-07-17T09:28:08.113Z,23.14
2018-07-17T09:30:41.822Z,22.97
2018-07-17T09:33:09.887Z,22.95
2018-07-17T09:35:37.967Z,22.26
2018-07-17T09:38:06.625Z,22.16
2018-07-17T09:40:34.640Z,22.45
2018-07-17T09:43:03.001Z,23.66
2018-07-17T09:45:31.375Z,22.69
2018-07-17T09:47:59.464Z,23.02
2018-07-17T09:50:27.602Z,22.54
2018-07-17T09:52:55.696Z,22.39
2018-07-17T09:55:23.752Z,22.88
2018-07-17T09:57:51.805Z,22.39
2018-07-17T10:00:25.387Z,21.96
2018-07-17T10:02:53.463Z,22.08
2018-07-17T10:05:21.532Z,22.62
2018-07-17T10:07:49.610Z,22.82
2018-07-17T10:10:17.790Z,23.57
2018-07-17T10:12:45.877Z,22.84
2018-07-17T10:15:14.365Z,23.63
2018-07-17T10:17:42.425Z,24.41
2018-07-17T10:20:10.985Z,24.77
2018-07-17T10:22:40.072Z,25.54
2018-07-17T10:25:11.738Z,25.46
2018-07-17T10:27:39.904Z,25.73
2018-07-17T10:30:08.014Z,25.76
2018-07-17T10:32:36.502Z,25.78
2018-07-17T10:35:04.644Z,27.00
2018-07-17T10:37:32.727Z,25.86
2018-07-17T10:40:01.796Z,26.92
2018-07-17T10:42:29.821Z,26.24
2018-07-17T10:44:57.897Z,25.26
2018-07-17T10:47:26.017Z,28.52
2018-07-17T10:49:53.983Z,26.65
2018-07-17T10:52:22.090Z,25.16
2018-07-17T10:54:50.300Z,25.73
2018-07-17T10:57:18.331Z,25.81
2018-07-17T10:59:46.420Z,27.42
2018-07-17T11:02:15.485Z,26.23
2018-07-17T11:04:43.540Z,25.62
2018-07-17T11:07:11.644Z,26.50
2018-07-17T11:09:39.652Z,26.96
2018-07-17T11:12:07.837Z,27.78
2018-07-17T11:14:35.991Z,26.05
2018-07-17T11:17:04.015Z,26.06
2018-07-17T11:19:32.207Z,26.74
2018-07-17T11:22:00.504Z,26.99
2018-07-17T11:24:28.880Z,27.67
2018-07-17T11:26:57.091Z,27.65
2018-07-17T11:29:25.651Z,26.61
2018-07-17T11:31:53.887Z,26.28
2018-07-17T11:34:21.921Z,25.79
2018-07-17T11:36:49.987Z,26.98
2018-07-17T11:39:18.880Z,26.05
2018-07-17T11:41:46.928Z,26.48
2018-07-17T11:44:15.012Z,27.39
2018-07-17T11:46:43.354Z,26.04
2018-07-17T11:49:11.383Z,25.06
2018-07-17T11:51:39.551Z,25.42
2018-07-17T11:54:07.615Z,25.49
2018-07-17T11:56:35.668Z,26.30
2018-07-17T11:59:03.770Z,24.97
2018-07-17T12:01:31.776Z,24.24
2018-07-17T12:03:59.822Z,25.64
2018-07-17T12:06:27.924Z,26.05
2018-07-17T12:08:55.964Z,25.81
2018-07-17T12:11:24.020Z,26.33
2018-07-17T12:13:52.084Z,27.26
2018-07-17T12:16:20.183Z,25.78
2018-07-17T12:18:48.302Z,26.10
2018-07-17T12:21:16.343Z,24.06
2018-07-17T12:23:44.415Z,25.42
2018-07-17T12:26:12.483Z,25.82
2018-07-17T12:28:40.645Z,26.00
2018-07-17T12:31:08.739Z,24.54
2018-07-17T12:33:36.811Z,25.05
2018-07-17T12:36:06.048Z,25.76
2018-07-17T12:38:34.116Z,26.09
2018-07-17T12:41:02.283Z,25.42
2018-07-17T12:43:30.360Z,26.73
2018-07-17T12:45:58.429Z,26.66
2018-07-17T12:48:26.487Z,25.73
2018-07-17T12:50:54.543Z,26.34
2018-07-17T12:53:22.618Z,26.08
2018-07-17T12:55:50.641Z,26.23
2018-07-17T12:58:18.672Z,26.68
2018-07-17T13:00:46.726Z,27.32
2018-07-17T13:03:14.772Z,27.16
2018-07-17T13:05:42.833Z,26.84
2018-07-17T13:08:11.287Z,27.07
2018-07-17T13:10:39.395Z,25.79
2018-07-17T13:13:07.748Z,25.53
2018-07-17T13:15:35.884Z,27.63
2018-07-17T13:18:04.117Z,26.47
2018-07-17T13:20:32.543Z,26.69
2018-07-17T13:23:01.071Z,25.46
2018-07-17T13:25:30.160Z,25.33
2018-07-17T13:27:58.272Z,27.93
2018-07-17T13:30:26.312Z,26.58
2018-07-17T13:32:54.585Z,26.13
2018-07-17T13:35:22.656Z,26.49
2018-07-17T13:37:50.708Z,27.19
2018-07-17T13:40:18.760Z,26.78
2018-07-17T13:42:46.840Z,27.07
2018-07-17T13:45:14.895Z,27.54
2018-07-17T13:47:42.940Z,27.45
2018-07-17T13:50:11.075Z,27.26
2018-07-17T13:52:39.136Z,27.19
2018-07-17T13:55:07.173Z,26.42
2018-07-17T13:57:35.263Z,27.41
2018-07-17T14:00:03.360Z,27.75
2018-07-17T14:02:31.469Z,27.10
2018-07-17T14:04:59.532Z,27.27
2018-07-17T14:07:27.616Z,26.37
2018-07-17T14:09:55.799Z,26.73
2018-07-17T14:12:24.037Z,26.82
2018-07-17T14:14:52.016Z,26.60
2018-07-17T14:17:20.121Z,26.14
2018-07-17T14:19:48.273Z,26.48
2018-07-17T14:22:16.405Z,26.99
2018-07-17T14:24:44.469Z,26.77
2018-07-17T14:27:12.520Z,26.76
2018-07-17T14:29:41.458Z,26.53
2018-07-17T14:32:09.488Z,26.93
2018-07-17T14:34:37.564Z,27.23
2018-07-17T14:37:05.707Z,26.75
2018-07-17T14:39:33.927Z,26.59
2018-07-17T14:42:02.087Z,27.38
2018-07-17T14:44:30.297Z,27.50
2018-07-17T14:46:58.696Z,27.72
2018-07-17T14:49:26.983Z,26.43
2018-07-17T14:51:55.621Z,27.85
2018-07-17T14:54:23.831Z,27.25
2018-07-17T14:56:51.998Z,27.12
2018-07-17T14:59:20.275Z,28.64
2018-07-17T15:01:48.400Z,28.94
2018-07-17T15:04:16.534Z,28.88
2018-07-17T15:06:44.580Z,28.75
2018-07-17T15:09:12.635Z,28.18
2018-07-17T15:11:40.716Z,28.20
2018-07-17T15:14:08.756Z,29.68
2018-07-17T15:16:36.852Z,28.93
2018-07-17T15:19:05.013Z,29.53
2018-07-17T15:21:33.093Z,30.39
2018-07-17T15:24:01.147Z,30.00
2018-07-17T15:26:29.183Z,29.29
2018-07-17T15:28:57.266Z,29.49
2018-07-17T15:31:25.287Z,30.32
2018-07-17T15:33:53.468Z,29.79
2018-07-17T15:36:21.623Z,29.56
2018-07-17T15:38:49.801Z,30.25
2018-07-17T15:41:18.016Z,30.93
2018-07-17T15:43:46.151Z,30.62
2018-07-17T15:46:14.232Z,30.18
2018-07-17T15:48:42.351Z,30.14
2018-07-17T15:51:10.386Z,29.51
2018-07-17T15:53:38.863Z,30.44
2018-07-17T15:56:07.100Z,30.83
2018-07-17T15:58:35.513Z,30.58
2018-07-17T16:01:03.710Z,30.48
2018-07-17T16:03:32.124Z,30.29
2018-07-17T16:06:00.315Z,30.00
2018-07-17T16:08:28.740Z,30.92
2018-07-17T16:10:57.741Z,29.88
2018-07-17T16:13:26.357Z,29.75
2018-07-17T16:15:55.219Z,29.26
2018-07-17T16:18:23.401Z,29.42
2018-07-17T16:20:51.748Z,30.46
2018-07-17T16:23:19.954Z,29.11
2018-07-17T16:25:48.879Z,28.69
2018-07-17T16:28:16.999Z,28.57
2018-07-17T16:30:45.137Z,27.99
2018-07-17T16:33:13.180Z,27.70
2018-07-17T16:35:41.372Z,27.21
2018-07-17T16:38:09.687Z,28.00
2018-07-17T16:40:37.862Z,27.25
2018-07-17T16:43:07.130Z,27.67
2018-07-17T16:45:35.730Z,27.28
2018-07-17T16:48:04.333Z,27.10
2018-07-17T16:50:32.821Z,27.23
2018-07-17T16:53:02.192Z,26.59
2018-07-17T16:55:30.523Z,26.54
2018-07-17T16:57:59.163Z,27.14
2018-07-17T17:00:27.592Z,26.76
2018-07-17T17:02:56.179Z,27.38
2018-07-17T17:05:25.654Z,28.85
2018-07-17T17:07:54.429Z,28.08
2018-07-17T17:10:22.583Z,28.82
2018-07-17T17:12:50.839Z,29.05
2018-07-17T17:15:19.207Z,28.98
2018-07-17T17:17:47.293Z,29.48
2018-07-17T17:20:15.420Z,28.93
2018-07-17T17:22:43.444Z,29.22
2018-07-17T17:25:11.488Z,28.41
2018-07-17T17:27:39.548Z,28.65
2018-07-17T17:30:07.583Z,29.33
2018-07-17T17:32:36.393Z,30.11
2018-07-17T17:35:04.446Z,29.78
2018-07-17T17:37:32.525Z,29.25
2018-07-17T17:40:00.571Z,30.05
2018-07-17T17:42:28.635Z,29.95
2018-07-17T17:44:56.867Z,30.01
2018-07-17T17:47:24.921Z,30.79
2018-07-17T17:49:53.378Z,31.57
2018-07-17T17:52:21.404Z,30.56
2018-07-17T17:54:49.905Z,31.83
2018-07-17T17:57:17.956Z,32.25
2018-07-17T17:59:46.008Z,32.24
2018-07-17T18:02:14.790Z,32.42
2018-07-17T18:04:42.859Z,32.16
2018-07-17T18:07:10.960Z,32.52
2018-07-17T18:09:39.923Z,32.94
2018-07-17T18:12:08.323Z,33.87
2018-07-17T18:14:36.867Z,33.43
2018-07-17T18:17:04.915Z,33.34
2018-07-17T18:19:32.962Z,33.63
2018-07-17T18:22:01.059Z,33.69
2018-07-17T18:24:29.100Z,35.01
2018-07-17T18:26:57.732Z,35.09
2018-07-17T18:29:25.732Z,34.96
2018-07-17T18:31:53.760Z,35.08
2018-07-17T18:34:21.902Z,36.43
2018-07-17T18:36:49.891Z,35.71
2018-07-17T18:39:17.982Z,36.17
2018-07-17T18:41:46.049Z,36.20
2018-07-17T18:44:14.119Z,36.75
2018-07-17T18:46:42.176Z,37.02
2018-07-17T18:49:10.395Z,36.93
2018-07-17T18:51:38.447Z,37.09
2018-07-17T18:54:06.768Z,37.82
2018-07-17T18:56:34.960Z,37.42
2018-07-17T18:59:03.166Z,38.25
2018-07-17T19:01:31.279Z,37.62
2018-07-17T19:04:01.099Z,38.27
2018-07-17T19:06:29.251Z,38.68
2018-07-17T19:08:57.324Z,39.43
2018-07-17T19:11:25.437Z,39.77
2018-07-17T19:13:55.453Z,39.20
2018-07-17T19:16:23.511Z,40.12
2018-07-17T19:18:51.531Z,39.88
2018-07-17T19:21:19.787Z,39.60
2018-07-17T19:23:48.556Z,41.57
2018-07-17T19:26:16.655Z,41.43
2018-07-17T19:28:44.780Z,41.47
2018-07-17T19:31:12.799Z,41.25
2018-07-17T19:33:40.863Z,42.45
2018-07-17T19:36:08.903Z,42.18
2018-07-17T19:38:37.307Z,42.87
2018-07-17T19:41:05.616Z,44.15
2018-07-17T19:43:35.274Z,45.84
2018-07-17T19:46:03.700Z,45.40
2018-07-17T19:48:32.343Z,46.95
2018-07-17T19:51:00.752Z,46.56
2018-07-17T19:53:29.432Z,47.88
2018-07-17T19:55:57.718Z,47.33
2018-07-17T19:58:26.465Z,48.38
2018-07-17T20:00:56.090Z,47.46
2018-07-17T20:03:24.216Z,49.29
2018-07-17T20:05:52.286Z,49.12
2018-07-17T20:08:21.914Z,49.95
2018-07-17T20:10:49.925Z,49.17
2018-07-17T20:13:18.164Z,50.26
2018-07-17T20:15:51.577Z,49.18
2018-07-17T20:18:19.762Z,50.67
2018-07-17T20:20:48.267Z,50.95
2018-07-17T20:23:20.759Z,50.18
2018-07-17T20:25:48.933Z,52.00
2018-07-17T20:28:17.568Z,51.73
2018-07-17T20:30:45.818Z,51.02
2018-07-17T20:33:14.151Z,51.36
2018-07-17T20:35:43.697Z,51.94
2018-07-17T20:38:11.747Z,52.58
2018-07-17T20:40:39.944Z,50.29
2018-07-17T20:43:07.971Z,51.40
2018-07-17T20:45:36.282Z,51.50
2018-07-17T20:48:05.448Z,53.66
2018-07-17T20:50:34.732Z,54.46
2018-07-17T20:53:03.253Z,54.91
2018-07-17T20:55:31.567Z,54.54
2018-07-17T20:57:59.905Z,54.23
2018-07-17T21:00:28.592Z,56.01
2018-07-17T21:02:57.108Z,54.74
2018-07-17T21:05:26.077Z,56.07
2018-07-17T21:07:54.934Z,55.87
2018-07-17T21:10:24.081Z,57.23
2018-07-17T21:12:52.604Z,57.24
2018-07-17T21:15:20.691Z,58.11
2018-07-17T21:17:48.736Z,57.29
2018-07-17T21:20:16.782Z,57.84
2018-07-17T21:22:44.838Z,57.82
2018-07-17T21:25:13.139Z,58.40
2018-07-17T21:27:41.164Z,58.01
2018-07-17T21:30:09.194Z,58.12
2018-07-17T21:32:37.259Z,58.24
2018-07-17T21:35:06.942Z,58.87
2018-07-17T21:37:35.564Z,58.90
2018-07-17T21:40:04.264Z,59.15
2018-07-17T21:42:32.835Z,57.41
2018-07-17T21:45:01.444Z,57.84
2018-07-17T21:47:31.045Z,57.52
2018-07-17T21:50:00.921Z,58.01
2018-07-17T21:52:29.953Z,58.00
2018-07-17T21:54:59.352Z,57.93
2018-07-17T21:57:28.996Z,58.11
2018-07-17T21:59:58.062Z,58.88
2018-07-17T22:02:28.524Z,58.99
2018-07-17T22:04:57.508Z,58.10
2018-07-17T22:07:26.875Z,58.20
2018-07-17T22:09:56.144Z,57.58
2018-07-17T22:12:26.292Z,57.71
2018-07-17T22:14:56.392Z,58.34
2018-07-17T22:17:26.962Z,56.90
2018-07-17T22:19:58.744Z,57.67
2018-07-17T22:22:28.209Z,57.17
2018-07-17T22:24:57.107Z,57.30
2018-07-17T22:27:29.065Z,58.54
2018-07-17T22:29:58.552Z,58.01
2018-07-17T22:32:32.107Z,58.67
2018-07-17T22:35:01.816Z,58.97
2018-07-17T22:37:31.432Z,58.11
2018-07-17T22:40:02.581Z,57.75
2018-07-17T22:42:32.078Z,58.28
2018-07-17T22:45:00.652Z,58.28
2018-07-17T22:47:34.583Z,58.20
2018-07-17T22:50:03.994Z,59.60
2018-07-17T22:52:32.591Z,59.50
2018-07-17T22:55:01.067Z,59.57
2018-07-17T22:57:30.750Z,59.14
2018-07-17T22:59:59.504Z,58.83
2018-07-17T23:02:28.411Z,59.58
2018-07-17T23:04:57.558Z,58.93
2018-07-17T23:07:26.227Z,59.57
2018-07-17T23:09:55.462Z,59.21
2018-07-17T23:12:26.628Z,58.65
2018-07-17T23:14:55.635Z,57.89
2018-07-17T23:17:24.828Z,58.06
2018-07-17T23:19:54.564Z,58.13
2018-07-17T23:22:32.072Z,57.94
2018-07-17T23:25:00.123Z,57.79
2018-07-17T23:27:28.232Z,57.64
2018-07-17T23:29:56.299Z,57.20
2018-07-17T23:32:25.547Z,56.91
2018-07-17T23:34:55.857Z,56.60
2018-07-17T23:37:23.925Z,56.66
2018-07-17T23:39:51.973Z,56.22
2018-07-17T23:42:26.931Z,56.20
2018-07-17T23:44:55.041Z,56.27
2018-07-17T23:47:25.073Z,55.79
2018-07-17T23:49:54.078Z,55.65
2018-07-17T23:52:22.128Z,55.97
2018-07-17T23:54:50.180Z,56.54
2018-07-17T23:57:19.626Z,55.92
2018-07-17T23:59:47.699Z,56.19
